LJPZ/POW METAR and TAF weather

Enter ICAO airport designator
Station Type Date Time Source
LJPZ METAR 2019/02/16 03:30 UTC NOAA

LJPZ 160330Z AUTO 12007KT 9999 NCD 01/M01 Q1031


Station Type Date Time Source
LJPZ Decoded METAR 2019/02/16 03:30 UTC NOAA

Portoroz, Slovenia (LJPZ) 45-31N 013-34E
Feb 15, 2019 - 10:30 PM EST / 2019.02.16 0330 UTC
Wind: from the ESE (120 degrees) at 8 MPH (7 KT):0
Visibility: greater than 7 mile(s):0
Temperature: 33 F (1 C)
Windchill: 26 F (-3 C):1
Dew Point: 30 F (-1 C)
Relative Humidity: 86%
Pressure (altimeter): 30.45 in. Hg (1031 hPa)
ob: LJPZ 160330Z AUTO 12007KT 9999 NCD 01/M01 Q1031
cycle: 3

Station Type Date Time Source
LJPZ TAF 2008/06/02 05:30 UTC NOAA

TAF TAF LJPZ 020530Z 021615 VRB02KT 6000 NSC
BECMG 0911 30005KT 9999 FEW040


Example: see airport list